sensor_id;sensor_type;location;lat;lon;timestamp;P1;durP1;ratioP1;P2;durP2;ratioP2
46489;SDS011;32204;49.160;8.580;2023-03-01T00:01:16;19.60;;;11.50;;
46489;SDS011;32204;49.160;8.580;2023-03-01T00:03:43;18.00;;;11.57;;
46489;SDS011;32204;49.160;8.580;2023-03-01T00:06:09;19.45;;;12.75;;
46489;SDS011;32204;49.160;8.580;2023-03-01T00:08:35;20.25;;;12.65;;
46489;SDS011;32204;49.160;8.580;2023-03-01T00:13:32;17.77;;;12.20;;
46489;SDS011;32204;49.160;8.580;2023-03-01T00:15:58;18.83;;;12.73;;
46489;SDS011;32204;49.160;8.580;2023-03-01T00:18:23;19.60;;;12.20;;
46489;SDS011;32204;49.160;8.580;2023-03-01T00:20:50;20.45;;;14.32;;
46489;SDS011;32204;49.160;8.580;2023-03-01T00:23:19;20.10;;;13.82;;
46489;SDS011;32204;49.160;8.580;2023-03-01T00:25:45;21.33;;;12.80;;
46489;SDS011;32204;49.160;8.580;2023-03-01T00:28:11;19.48;;;13.25;;
46489;SDS011;32204;49.160;8.580;2023-03-01T00:30:37;20.55;;;12.88;;
46489;SDS011;32204;49.160;8.580;2023-03-01T00:33:02;20.90;;;13.77;;
46489;SDS011;32204;49.160;8.580;2023-03-01T00:35:28;19.05;;;13.48;;
46489;SDS011;32204;49.160;8.580;2023-03-01T00:37:53;19.63;;;13.48;;
46489;SDS011;32204;49.160;8.580;2023-03-01T00:40:26;20.17;;;13.30;;
46489;SDS011;32204;49.160;8.580;2023-03-01T00:42:53;19.63;;;12.95;;
46489;SDS011;32204;49.160;8.580;2023-03-01T00:45:19;20.90;;;12.80;;
46489;SDS011;32204;49.160;8.580;2023-03-01T00:47:45;20.45;;;12.52;;
46489;SDS011;32204;49.160;8.580;2023-03-01T00:50:11;19.30;;;13.25;;
46489;SDS011;32204;49.160;8.580;2023-03-01T00:52:36;18.00;;;12.55;;
46489;SDS011;32204;49.160;8.580;2023-03-01T00:55:03;17.48;;;11.77;;
46489;SDS011;32204;49.160;8.580;2023-03-01T00:57:29;18.33;;;11.75;;
46489;SDS011;32204;49.160;8.580;2023-03-01T00:59:55;19.42;;;12.43;;
46489;SDS011;32204;49.160;8.580;2023-03-01T01:02:21;20.80;;;12.43;;
46489;SDS011;32204;49.160;8.580;2023-03-01T01:04:47;18.58;;;12.40;;
46489;SDS011;32204;49.160;8.580;2023-03-01T01:07:13;18.65;;;11.77;;
46489;SDS011;32204;49.160;8.580;2023-03-01T01:09:39;17.67;;;11.18;;
46489;SDS011;32204;49.160;8.580;2023-03-01T01:12:05;16.20;;;11.45;;
46489;SDS011;32204;49.160;8.580;2023-03-01T01:14:31;17.63;;;11.27;;
46489;SDS011;32204;49.160;8.580;2023-03-01T01:16:57;19.15;;;13.18;;
46489;SDS011;32204;49.160;8.580;2023-03-01T01:19:23;15.65;;;10.93;;
46489;SDS011;32204;49.160;8.580;2023-03-01T01:21:50;15.77;;;11.85;;
46489;SDS011;32204;49.160;8.580;2023-03-01T01:24:16;20.08;;;11.27;;
46489;SDS011;32204;49.160;8.580;2023-03-01T01:26:42;19.83;;;11.48;;
46489;SDS011;32204;49.160;8.580;2023-03-01T01:29:09;17.35;;;12.18;;
46489;SDS011;32204;49.160;8.580;2023-03-01T01:31:35;17.48;;;11.77;;
46489;SDS011;32204;49.160;8.580;2023-03-01T01:34:02;18.10;;;11.38;;
46489;SDS011;32204;49.160;8.580;2023-03-01T01:36:29;16.20;;;11.50;;
46489;SDS011;32204;49.160;8.580;2023-03-01T01:38:55;18.55;;;12.32;;
46489;SDS011;32204;49.160;8.580;2023-03-01T01:41:21;19.58;;;12.52;;
46489;SDS011;32204;49.160;8.580;2023-03-01T01:46:35;20.35;;;12.65;;
46489;SDS011;32204;49.160;8.580;2023-03-01T01:49:05;20.33;;;11.88;;
46489;SDS011;32204;49.160;8.580;2023-03-01T01:51:41;23.35;;;12.23;;
46489;SDS011;32204;49.160;8.580;2023-03-01T01:54:13;19.40;;;12.68;;
46489;SDS011;32204;49.160;8.580;2023-03-01T01:56:44;22.17;;;13.77;;
46489;SDS011;32204;49.160;8.580;2023-03-01T01:59:14;20.48;;;12.30;;
46489;SDS011;32204;49.160;8.580;2023-03-01T02:01:40;17.08;;;12.15;;
46489;SDS011;32204;49.160;8.580;2023-03-01T02:04:05;19.25;;;12.05;;
46489;SDS011;32204;49.160;8.580;2023-03-01T02:06:39;19.67;;;12.95;;
46489;SDS011;32204;49.160;8.580;2023-03-01T02:09:13;19.75;;;12.40;;
46489;SDS011;32204;49.160;8.580;2023-03-01T02:11:40;21.92;;;14.25;;
46489;SDS011;32204;49.160;8.580;2023-03-01T02:14:09;20.80;;;14.30;;
46489;SDS011;32204;49.160;8.580;2023-03-01T02:16:35;23.20;;;13.43;;
46489;SDS011;32204;49.160;8.580;2023-03-01T02:19:01;20.80;;;13.90;;
46489;SDS011;32204;49.160;8.580;2023-03-01T02:24:05;21.58;;;13.40;;
46489;SDS011;32204;49.160;8.580;2023-03-01T02:26:54;19.60;;;14.30;;
46489;SDS011;32204;49.160;8.580;2023-03-01T02:29:22;22.95;;;14.88;;
46489;SDS011;32204;49.160;8.580;2023-03-01T02:31:49;22.08;;;14.13;;
46489;SDS011;32204;49.160;8.580;2023-03-01T02:34:17;22.88;;;14.50;;
46489;SDS011;32204;49.160;8.580;2023-03-01T02:37:18;19.67;;;14.48;;
46489;SDS011;32204;49.160;8.580;2023-03-01T02:39:40;24.48;;;15.57;;
46489;SDS011;32204;49.160;8.580;2023-03-01T02:42:11;20.90;;;14.90;;
46489;SDS011;32204;49.160;8.580;2023-03-01T02:44:39;24.60;;;16.20;;
46489;SDS011;32204;49.160;8.580;2023-03-01T02:47:05;25.23;;;15.60;;
46489;SDS011;32204;49.160;8.580;2023-03-01T02:49:32;27.88;;;16.55;;
46489;SDS011;32204;49.160;8.580;2023-03-01T02:54:46;25.02;;;14.60;;
46489;SDS011;32204;49.160;8.580;2023-03-01T02:57:20;24.13;;;15.23;;
46489;SDS011;32204;49.160;8.580;2023-03-01T02:59:48;25.25;;;14.35;;
46489;SDS011;32204;49.160;8.580;2023-03-01T03:02:34;25.58;;;15.82;;
46489;SDS011;32204;49.160;8.580;2023-03-01T03:05:01;23.25;;;15.40;;
46489;SDS011;32204;49.160;8.580;2023-03-01T03:07:33;25.48;;;16.20;;
46489;SDS011;32204;49.160;8.580;2023-03-01T03:10:00;26.38;;;16.42;;
46489;SDS011;32204;49.160;8.580;2023-03-01T03:12:27;27.27;;;15.57;;
46489;SDS011;32204;49.160;8.580;2023-03-01T03:14:53;22.75;;;15.57;;
46489;SDS011;32204;49.160;8.580;2023-03-01T03:17:18;22.35;;;16.15;;
46489;SDS011;32204;49.160;8.580;2023-03-01T03:19:44;24.17;;;15.75;;
46489;SDS011;32204;49.160;8.580;2023-03-01T03:22:10;24.58;;;16.30;;
46489;SDS011;32204;49.160;8.580;2023-03-01T03:24:37;27.73;;;17.00;;
46489;SDS011;32204;49.160;8.580;2023-03-01T03:29:31;27.20;;;15.23;;
46489;SDS011;32204;49.160;8.580;2023-03-01T03:31:57;25.63;;;15.70;;
46489;SDS011;32204;49.160;8.580;2023-03-01T03:34:23;24.92;;;15.38;;
46489;SDS011;32204;49.160;8.580;2023-03-01T03:36:53;27.02;;;16.10;;
46489;SDS011;32204;49.160;8.580;2023-03-01T03:39:24;26.55;;;16.13;;
46489;SDS011;32204;49.160;8.580;2023-03-01T03:41:52;26.63;;;16.27;;
46489;SDS011;32204;49.160;8.580;2023-03-01T03:44:18;24.35;;;15.52;;
46489;SDS011;32204;49.160;8.580;2023-03-01T03:46:44;24.48;;;14.75;;
46489;SDS011;32204;49.160;8.580;2023-03-01T03:49:09;23.60;;;14.25;;
46489;SDS011;32204;49.160;8.580;2023-03-01T03:51:35;23.67;;;15.63;;
46489;SDS011;32204;49.160;8.580;2023-03-01T03:54:00;26.30;;;16.60;;
46489;SDS011;32204;49.160;8.580;2023-03-01T03:56:26;25.30;;;15.25;;
46489;SDS011;32204;49.160;8.580;2023-03-01T03:58:52;24.17;;;16.67;;
46489;SDS011;32204;49.160;8.580;2023-03-01T04:01:18;26.52;;;17.02;;
46489;SDS011;32204;49.160;8.580;2023-03-01T04:03:43;24.13;;;16.25;;
46489;SDS011;32204;49.160;8.580;2023-03-01T04:06:12;27.40;;;17.83;;
46489;SDS011;32204;49.160;8.580;2023-03-01T04:08:39;26.35;;;17.40;;
46489;SDS011;32204;49.160;8.580;2023-03-01T04:11:06;28.40;;;18.20;;
46489;SDS011;32204;49.160;8.580;2023-03-01T04:13:51;33.05;;;18.95;;
46489;SDS011;32204;49.160;8.580;2023-03-01T04:16:18;30.23;;;18.90;;
46489;SDS011;32204;49.160;8.580;2023-03-01T04:18:44;27.90;;;17.73;;
46489;SDS011;32204;49.160;8.580;2023-03-01T04:21:12;29.50;;;18.75;;
46489;SDS011;32204;49.160;8.580;2023-03-01T04:23:39;30.00;;;18.10;;
46489;SDS011;32204;49.160;8.580;2023-03-01T04:26:05;30.90;;;17.75;;
46489;SDS011;32204;49.160;8.580;2023-03-01T04:28:32;30.52;;;18.85;;
46489;SDS011;32204;49.160;8.580;2023-03-01T04:31:04;31.80;;;16.95;;
46489;SDS011;32204;49.160;8.580;2023-03-01T04:33:47;29.73;;;17.17;;
46489;SDS011;32204;49.160;8.580;2023-03-01T04:36:17;28.60;;;17.48;;
46489;SDS011;32204;49.160;8.580;2023-03-01T04:38:45;28.80;;;18.45;;
46489;SDS011;32204;49.160;8.580;2023-03-01T04:41:12;27.58;;;18.25;;
46489;SDS011;32204;49.160;8.580;2023-03-01T04:43:38;25.95;;;17.02;;
46489;SDS011;32204;49.160;8.580;2023-03-01T04:46:05;28.20;;;18.13;;
46489;SDS011;32204;49.160;8.580;2023-03-01T04:48:34;26.15;;;17.35;;
46489;SDS011;32204;49.160;8.580;2023-03-01T04:51:02;28.92;;;17.88;;
46489;SDS011;32204;49.160;8.580;2023-03-01T04:53:31;30.40;;;16.80;;
46489;SDS011;32204;49.160;8.580;2023-03-01T04:55:58;27.35;;;17.27;;
46489;SDS011;32204;49.160;8.580;2023-03-01T04:58:24;27.13;;;16.55;;
46489;SDS011;32204;49.160;8.580;2023-03-01T05:00:51;29.17;;;19.42;;
46489;SDS011;32204;49.160;8.580;2023-03-01T05:03:18;30.77;;;19.10;;
46489;SDS011;32204;49.160;8.580;2023-03-01T05:05:45;28.77;;;18.35;;
46489;SDS011;32204;49.160;8.580;2023-03-01T05:08:12;29.02;;;18.27;;
46489;SDS011;32204;49.160;8.580;2023-03-01T05:10:51;30.92;;;18.48;;
46489;SDS011;32204;49.160;8.580;2023-03-01T05:13:18;30.35;;;17.55;;
46489;SDS011;32204;49.160;8.580;2023-03-01T05:15:49;27.10;;;18.23;;
46489;SDS011;32204;49.160;8.580;2023-03-01T05:18:20;28.85;;;19.23;;
46489;SDS011;32204;49.160;8.580;2023-03-01T05:20:45;28.70;;;18.38;;
46489;SDS011;32204;49.160;8.580;2023-03-01T05:23:12;28.67;;;18.60;;
46489;SDS011;32204;49.160;8.580;2023-03-01T05:25:37;29.23;;;19.75;;
46489;SDS011;32204;49.160;8.580;2023-03-01T05:28:05;33.30;;;17.50;;
46489;SDS011;32204;49.160;8.580;2023-03-01T05:30:32;31.70;;;18.45;;
46489;SDS011;32204;49.160;8.580;2023-03-01T05:32:59;31.30;;;19.70;;
46489;SDS011;32204;49.160;8.580;2023-03-01T05:35:25;26.55;;;17.92;;
46489;SDS011;32204;49.160;8.580;2023-03-01T05:37:51;31.05;;;19.35;;
46489;SDS011;32204;49.160;8.580;2023-03-01T05:40:18;30.25;;;18.65;;
46489;SDS011;32204;49.160;8.580;2023-03-01T05:42:46;28.65;;;17.85;;
46489;SDS011;32204;49.160;8.580;2023-03-01T05:45:14;29.27;;;18.85;;
46489;SDS011;32204;49.160;8.580;2023-03-01T05:47:41;31.38;;;19.10;;
46489;SDS011;32204;49.160;8.580;2023-03-01T05:50:10;29.25;;;17.52;;
46489;SDS011;32204;49.160;8.580;2023-03-01T05:52:37;34.83;;;19.17;;
46489;SDS011;32204;49.160;8.580;2023-03-01T05:55:03;28.73;;;17.55;;
46489;SDS011;32204;49.160;8.580;2023-03-01T05:57:29;25.77;;;17.50;;
46489;SDS011;32204;49.160;8.580;2023-03-01T05:59:57;28.08;;;17.02;;
46489;SDS011;32204;49.160;8.580;2023-03-01T06:04:48;30.23;;;17.63;;
46489;SDS011;32204;49.160;8.580;2023-03-01T06:07:14;29.80;;;17.98;;
46489;SDS011;32204;49.160;8.580;2023-03-01T06:09:39;30.42;;;18.27;;
46489;SDS011;32204;49.160;8.580;2023-03-01T06:12:05;28.52;;;16.98;;
46489;SDS011;32204;49.160;8.580;2023-03-01T06:14:31;28.85;;;17.52;;
46489;SDS011;32204;49.160;8.580;2023-03-01T06:16:57;30.00;;;17.58;;
46489;SDS011;32204;49.160;8.580;2023-03-01T06:19:23;30.17;;;19.23;;
46489;SDS011;32204;49.160;8.580;2023-03-01T06:21:48;31.63;;;19.40;;
46489;SDS011;32204;49.160;8.580;2023-03-01T06:24:14;34.45;;;18.60;;
46489;SDS011;32204;49.160;8.580;2023-03-01T06:26:40;28.42;;;16.95;;
46489;SDS011;32204;49.160;8.580;2023-03-01T06:29:05;28.42;;;17.05;;
46489;SDS011;32204;49.160;8.580;2023-03-01T06:31:32;27.63;;;17.15;;
46489;SDS011;32204;49.160;8.580;2023-03-01T06:33:58;29.63;;;19.42;;
46489;SDS011;32204;49.160;8.580;2023-03-01T06:36:23;29.73;;;17.75;;
46489;SDS011;32204;49.160;8.580;2023-03-01T06:38:49;26.45;;;17.80;;
46489;SDS011;32204;49.160;8.580;2023-03-01T06:41:14;31.98;;;19.00;;
46489;SDS011;32204;49.160;8.580;2023-03-01T06:43:40;28.02;;;18.00;;
46489;SDS011;32204;49.160;8.580;2023-03-01T06:46:05;32.13;;;18.88;;
46489;SDS011;32204;49.160;8.580;2023-03-01T06:48:34;28.02;;;16.88;;
46489;SDS011;32204;49.160;8.580;2023-03-01T06:51:00;27.52;;;17.35;;
46489;SDS011;32204;49.160;8.580;2023-03-01T06:53:27;32.38;;;19.10;;
46489;SDS011;32204;49.160;8.580;2023-03-01T06:55:54;30.95;;;18.95;;
46489;SDS011;32204;49.160;8.580;2023-03-01T06:58:20;34.90;;;20.25;;
46489;SDS011;32204;49.160;8.580;2023-03-01T07:00:46;34.00;;;19.90;;
46489;SDS011;32204;49.160;8.580;2023-03-01T07:03:12;28.42;;;18.38;;
46489;SDS011;32204;49.160;8.580;2023-03-01T07:05:40;33.85;;;20.40;;
46489;SDS011;32204;49.160;8.580;2023-03-01T07:10:31;30.92;;;19.40;;
46489;SDS011;32204;49.160;8.580;2023-03-01T07:12:57;29.73;;;18.60;;
46489;SDS011;32204;49.160;8.580;2023-03-01T07:15:24;39.42;;;22.08;;
46489;SDS011;32204;49.160;8.580;2023-03-01T07:17:53;52.25;;;30.73;;
46489;SDS011;32204;49.160;8.580;2023-03-01T07:20:19;43.42;;;26.05;;
46489;SDS011;32204;49.160;8.580;2023-03-01T07:22:49;38.00;;;23.92;;
46489;SDS011;32204;49.160;8.580;2023-03-01T07:25:15;45.78;;;27.67;;
46489;SDS011;32204;49.160;8.580;2023-03-01T07:27:40;34.45;;;22.88;;
46489;SDS011;32204;49.160;8.580;2023-03-01T07:30:06;33.70;;;21.08;;
46489;SDS011;32204;49.160;8.580;2023-03-01T07:32:32;33.38;;;19.35;;
46489;SDS011;32204;49.160;8.580;2023-03-01T07:34:58;30.95;;;19.92;;
46489;SDS011;32204;49.160;8.580;2023-03-01T07:37:24;35.25;;;21.10;;
46489;SDS011;32204;49.160;8.580;2023-03-01T07:39:49;27.30;;;19.05;;
46489;SDS011;32204;49.160;8.580;2023-03-01T07:42:15;29.65;;;17.90;;
46489;SDS011;32204;49.160;8.580;2023-03-01T07:44:41;30.52;;;19.05;;
46489;SDS011;32204;49.160;8.580;2023-03-01T07:47:06;29.63;;;20.42;;
46489;SDS011;32204;49.160;8.580;2023-03-01T07:49:32;28.65;;;18.63;;
46489;SDS011;32204;49.160;8.580;2023-03-01T07:51:57;30.75;;;20.00;;
46489;SDS011;32204;49.160;8.580;2023-03-01T07:54:23;29.52;;;18.90;;
46489;SDS011;32204;49.160;8.580;2023-03-01T07:56:49;32.33;;;18.73;;
46489;SDS011;32204;49.160;8.580;2023-03-01T07:59:14;29.17;;;19.77;;
46489;SDS011;32204;49.160;8.580;2023-03-01T08:01:40;28.85;;;19.27;;
46489;SDS011;32204;49.160;8.580;2023-03-01T08:04:07;31.98;;;19.92;;
46489;SDS011;32204;49.160;8.580;2023-03-01T08:06:34;29.23;;;19.45;;
46489;SDS011;32204;49.160;8.580;2023-03-01T08:09:00;29.98;;;19.42;;
46489;SDS011;32204;49.160;8.580;2023-03-01T08:11:26;29.50;;;19.95;;
46489;SDS011;32204;49.160;8.580;2023-03-01T08:13:55;27.88;;;18.83;;
46489;SDS011;32204;49.160;8.580;2023-03-01T08:16:22;29.20;;;18.45;;
46489;SDS011;32204;49.160;8.580;2023-03-01T08:18:48;30.85;;;21.27;;
46489;SDS011;32204;49.160;8.580;2023-03-01T08:21:14;27.85;;;19.65;;
46489;SDS011;32204;49.160;8.580;2023-03-01T08:23:42;28.52;;;17.98;;
46489;SDS011;32204;49.160;8.580;2023-03-01T08:26:08;27.75;;;19.00;;
46489;SDS011;32204;49.160;8.580;2023-03-01T08:28:36;28.38;;;19.83;;
46489;SDS011;32204;49.160;8.580;2023-03-01T08:31:02;27.13;;;20.60;;
46489;SDS011;32204;49.160;8.580;2023-03-01T08:33:28;29.85;;;20.77;;
46489;SDS011;32204;49.160;8.580;2023-03-01T08:36:02;30.58;;;20.13;;
46489;SDS011;32204;49.160;8.580;2023-03-01T08:38:31;29.35;;;20.10;;
46489;SDS011;32204;49.160;8.580;2023-03-01T08:41:03;30.05;;;20.75;;
46489;SDS011;32204;49.160;8.580;2023-03-01T08:43:29;27.30;;;18.75;;
46489;SDS011;32204;49.160;8.580;2023-03-01T08:45:55;27.45;;;19.92;;
46489;SDS011;32204;49.160;8.580;2023-03-01T08:48:21;29.58;;;21.77;;
46489;SDS011;32204;49.160;8.580;2023-03-01T08:50:46;31.40;;;19.27;;
46489;SDS011;32204;49.160;8.580;2023-03-01T08:53:12;26.98;;;18.00;;
46489;SDS011;32204;49.160;8.580;2023-03-01T08:55:38;28.48;;;18.70;;
46489;SDS011;32204;49.160;8.580;2023-03-01T08:58:03;28.75;;;21.38;;
46489;SDS011;32204;49.160;8.580;2023-03-01T09:00:29;26.42;;;18.05;;
46489;SDS011;32204;49.160;8.580;2023-03-01T09:02:54;26.05;;;18.77;;
46489;SDS011;32204;49.160;8.580;2023-03-01T09:05:20;26.45;;;18.67;;
46489;SDS011;32204;49.160;8.580;2023-03-01T09:07:45;29.15;;;20.23;;
46489;SDS011;32204;49.160;8.580;2023-03-01T09:10:11;27.90;;;19.40;;
46489;SDS011;32204;49.160;8.580;2023-03-01T09:12:36;30.83;;;21.25;;
46489;SDS011;32204;49.160;8.580;2023-03-01T09:15:02;27.00;;;18.88;;
46489;SDS011;32204;49.160;8.580;2023-03-01T09:17:28;30.52;;;20.50;;
46489;SDS011;32204;49.160;8.580;2023-03-01T09:19:54;32.60;;;20.92;;
46489;SDS011;32204;49.160;8.580;2023-03-01T09:22:20;32.00;;;19.33;;
46489;SDS011;32204;49.160;8.580;2023-03-01T09:24:45;28.17;;;18.38;;
46489;SDS011;32204;49.160;8.580;2023-03-01T09:27:11;29.27;;;18.33;;
46489;SDS011;32204;49.160;8.580;2023-03-01T09:29:37;31.25;;;20.20;;
46489;SDS011;32204;49.160;8.580;2023-03-01T09:32:03;26.65;;;20.25;;
46489;SDS011;32204;49.160;8.580;2023-03-01T09:34:29;31.17;;;19.63;;
46489;SDS011;32204;49.160;8.580;2023-03-01T09:36:57;29.65;;;19.13;;
46489;SDS011;32204;49.160;8.580;2023-03-01T09:44:48;30.73;;;20.50;;
46489;SDS011;32204;49.160;8.580;2023-03-01T09:47:26;29.35;;;20.63;;
46489;SDS011;32204;49.160;8.580;2023-03-01T09:55:14;32.55;;;19.88;;
46489;SDS011;32204;49.160;8.580;2023-03-01T09:58:00;28.60;;;19.10;;
46489;SDS011;32204;49.160;8.580;2023-03-01T10:00:47;30.42;;;20.48;;
46489;SDS011;32204;49.160;8.580;2023-03-01T10:03:21;27.98;;;20.10;;
46489;SDS011;32204;49.160;8.580;2023-03-01T10:11:19;29.00;;;19.27;;
46489;SDS011;32204;49.160;8.580;2023-03-01T10:16:51;32.78;;;18.85;;
46489;SDS011;32204;49.160;8.580;2023-03-01T10:22:05;29.10;;;20.60;;
46489;SDS011;32204;49.160;8.580;2023-03-01T10:24:53;29.33;;;20.33;;
46489;SDS011;32204;49.160;8.580;2023-03-01T10:29:55;27.45;;;19.83;;
46489;SDS011;32204;49.160;8.580;2023-03-01T10:32:38;29.08;;;20.05;;
46489;SDS011;32204;49.160;8.580;2023-03-01T10:38:10;33.25;;;20.98;;
46489;SDS011;32204;49.160;8.580;2023-03-01T10:40:52;27.37;;;19.00;;
46489;SDS011;32204;49.160;8.580;2023-03-01T10:43:22;30.00;;;19.90;;
46489;SDS011;32204;49.160;8.580;2023-03-01T10:45:57;27.92;;;19.85;;
46489;SDS011;32204;49.160;8.580;2023-03-01T10:48:24;27.60;;;17.77;;
46489;SDS011;32204;49.160;8.580;2023-03-01T10:51:04;28.67;;;19.33;;
46489;SDS011;32204;49.160;8.580;2023-03-01T10:53:33;27.95;;;19.40;;
46489;SDS011;32204;49.160;8.580;2023-03-01T10:56:06;27.52;;;18.63;;
46489;SDS011;32204;49.160;8.580;2023-03-01T10:58:35;28.02;;;19.55;;
46489;SDS011;32204;49.160;8.580;2023-03-01T11:04:03;30.30;;;19.77;;
46489;SDS011;32204;49.160;8.580;2023-03-01T11:06:32;26.20;;;19.48;;
46489;SDS011;32204;49.160;8.580;2023-03-01T11:09:13;26.23;;;18.95;;
46489;SDS011;32204;49.160;8.580;2023-03-01T11:11:53;26.90;;;19.17;;
46489;SDS011;32204;49.160;8.580;2023-03-01T11:14:23;28.30;;;19.67;;
46489;SDS011;32204;49.160;8.580;2023-03-01T11:16:58;27.40;;;19.33;;
46489;SDS011;32204;49.160;8.580;2023-03-01T11:19:36;28.10;;;19.17;;
46489;SDS011;32204;49.160;8.580;2023-03-01T11:22:03;26.98;;;19.58;;
46489;SDS011;32204;49.160;8.580;2023-03-01T11:27:04;26.55;;;17.83;;
46489;SDS011;32204;49.160;8.580;2023-03-01T11:29:44;26.50;;;19.02;;
46489;SDS011;32204;49.160;8.580;2023-03-01T11:32:16;24.25;;;18.27;;
46489;SDS011;32204;49.160;8.580;2023-03-01T11:37:40;26.42;;;19.50;;
46489;SDS011;32204;49.160;8.580;2023-03-01T11:40:20;25.05;;;18.42;;
46489;SDS011;32204;49.160;8.580;2023-03-01T12:05:40;27.48;;;18.92;;
46489;SDS011;32204;49.160;8.580;2023-03-01T12:16:46;26.02;;;18.05;;
46489;SDS011;32204;49.160;8.580;2023-03-01T12:22:15;22.48;;;18.77;;
46489;SDS011;32204;49.160;8.580;2023-03-01T12:27:50;22.33;;;16.63;;
46489;SDS011;32204;49.160;8.580;2023-03-01T12:35:47;24.77;;;18.55;;
46489;SDS011;32204;49.160;8.580;2023-03-01T12:38:55;25.08;;;17.45;;
46489;SDS011;32204;49.160;8.580;2023-03-01T12:41:31;23.88;;;17.15;;
46489;SDS011;32204;49.160;8.580;2023-03-01T12:44:09;24.05;;;19.90;;
46489;SDS011;32204;49.160;8.580;2023-03-01T12:46:59;26.70;;;18.98;;
46489;SDS011;32204;49.160;8.580;2023-03-01T12:49:40;27.73;;;18.52;;
46489;SDS011;32204;49.160;8.580;2023-03-01T12:52:13;25.60;;;18.40;;
46489;SDS011;32204;49.160;8.580;2023-03-01T12:54:43;26.15;;;19.02;;
46489;SDS011;32204;49.160;8.580;2023-03-01T13:04:52;27.67;;;18.13;;
46489;SDS011;32204;49.160;8.580;2023-03-01T13:07:41;24.42;;;18.55;;
46489;SDS011;32204;49.160;8.580;2023-03-01T13:17:48;25.52;;;17.48;;
46489;SDS011;32204;49.160;8.580;2023-03-01T13:31:06;25.27;;;17.88;;
46489;SDS011;32204;49.160;8.580;2023-03-01T13:33:37;25.30;;;16.58;;
46489;SDS011;32204;49.160;8.580;2023-03-01T13:36:06;26.35;;;18.05;;
46489;SDS011;32204;49.160;8.580;2023-03-01T13:55:51;25.10;;;17.95;;
46489;SDS011;32204;49.160;8.580;2023-03-01T13:58:26;25.05;;;16.75;;
46489;SDS011;32204;49.160;8.580;2023-03-01T14:00:57;22.58;;;16.30;;
46489;SDS011;32204;49.160;8.580;2023-03-01T14:03:28;22.60;;;17.63;;
46489;SDS011;32204;49.160;8.580;2023-03-01T14:08:31;23.17;;;18.02;;
46489;SDS011;32204;49.160;8.580;2023-03-01T14:11:08;23.98;;;17.77;;
46489;SDS011;32204;49.160;8.580;2023-03-01T14:19:23;24.85;;;17.10;;
46489;SDS011;32204;49.160;8.580;2023-03-01T14:22:26;23.02;;;16.50;;
46489;SDS011;32204;49.160;8.580;2023-03-01T14:24:54;24.02;;;16.10;;
46489;SDS011;32204;49.160;8.580;2023-03-01T14:27:20;23.48;;;16.75;;
46489;SDS011;32204;49.160;8.580;2023-03-01T14:30:31;22.23;;;17.05;;
46489;SDS011;32204;49.160;8.580;2023-03-01T14:32:37;21.38;;;16.40;;
46489;SDS011;32204;49.160;8.580;2023-03-01T14:35:18;23.35;;;18.30;;
46489;SDS011;32204;49.160;8.580;2023-03-01T14:38:02;21.80;;;16.33;;
46489;SDS011;32204;49.160;8.580;2023-03-01T14:40:32;22.05;;;17.13;;
46489;SDS011;32204;49.160;8.580;2023-03-01T14:43:01;25.40;;;16.98;;
46489;SDS011;32204;49.160;8.580;2023-03-01T14:45:33;22.25;;;16.65;;
46489;SDS011;32204;49.160;8.580;2023-03-01T14:47:59;24.77;;;16.80;;
46489;SDS011;32204;49.160;8.580;2023-03-01T14:50:31;24.38;;;17.65;;
46489;SDS011;32204;49.160;8.580;2023-03-01T14:52:59;22.77;;;15.90;;
46489;SDS011;32204;49.160;8.580;2023-03-01T14:55:41;22.13;;;18.48;;
46489;SDS011;32204;49.160;8.580;2023-03-01T14:58:11;21.77;;;17.15;;
46489;SDS011;32204;49.160;8.580;2023-03-01T15:00:39;19.83;;;15.27;;
46489;SDS011;32204;49.160;8.580;2023-03-01T15:03:14;26.08;;;16.30;;
46489;SDS011;32204;49.160;8.580;2023-03-01T15:05:48;22.05;;;16.83;;
46489;SDS011;32204;49.160;8.580;2023-03-01T15:08:16;23.10;;;18.42;;
46489;SDS011;32204;49.160;8.580;2023-03-01T15:10:58;24.92;;;17.38;;
46489;SDS011;32204;49.160;8.580;2023-03-01T15:13:34;22.30;;;16.67;;
46489;SDS011;32204;49.160;8.580;2023-03-01T15:18:49;23.48;;;17.40;;
46489;SDS011;32204;49.160;8.580;2023-03-01T15:21:20;25.33;;;17.48;;
46489;SDS011;32204;49.160;8.580;2023-03-01T15:23:52;26.00;;;17.10;;
46489;SDS011;32204;49.160;8.580;2023-03-01T15:26:49;22.92;;;16.75;;
46489;SDS011;32204;49.160;8.580;2023-03-01T15:29:32;21.45;;;17.73;;
46489;SDS011;32204;49.160;8.580;2023-03-01T15:32:06;19.70;;;16.65;;
46489;SDS011;32204;49.160;8.580;2023-03-01T15:34:51;24.08;;;17.02;;
46489;SDS011;32204;49.160;8.580;2023-03-01T15:42:56;24.95;;;16.73;;
46489;SDS011;32204;49.160;8.580;2023-03-01T15:45:24;23.65;;;16.35;;
46489;SDS011;32204;49.160;8.580;2023-03-01T15:47:53;23.15;;;16.27;;
46489;SDS011;32204;49.160;8.580;2023-03-01T15:53:00;22.65;;;16.98;;
46489;SDS011;32204;49.160;8.580;2023-03-01T15:55:31;24.77;;;17.25;;
46489;SDS011;32204;49.160;8.580;2023-03-01T15:57:59;25.08;;;17.55;;
46489;SDS011;32204;49.160;8.580;2023-03-01T16:00:27;22.77;;;15.85;;
46489;SDS011;32204;49.160;8.580;2023-03-01T16:02:54;24.10;;;17.85;;
46489;SDS011;32204;49.160;8.580;2023-03-01T16:05:23;24.83;;;17.50;;
46489;SDS011;32204;49.160;8.580;2023-03-01T16:07:52;23.80;;;16.80;;
46489;SDS011;32204;49.160;8.580;2023-03-01T16:10:18;21.67;;;17.20;;
46489;SDS011;32204;49.160;8.580;2023-03-01T16:12:44;22.88;;;17.20;;
46489;SDS011;32204;49.160;8.580;2023-03-01T16:15:21;24.10;;;16.92;;
46489;SDS011;32204;49.160;8.580;2023-03-01T16:17:47;22.35;;;15.82;;
46489;SDS011;32204;49.160;8.580;2023-03-01T16:20:13;22.90;;;16.17;;
46489;SDS011;32204;49.160;8.580;2023-03-01T16:22:42;29.27;;;18.02;;
46489;SDS011;32204;49.160;8.580;2023-03-01T16:25:12;25.40;;;17.27;;
46489;SDS011;32204;49.160;8.580;2023-03-01T16:27:46;24.08;;;16.77;;
46489;SDS011;32204;49.160;8.580;2023-03-01T16:30:16;20.83;;;15.73;;
46489;SDS011;32204;49.160;8.580;2023-03-01T16:32:46;24.85;;;18.42;;
46489;SDS011;32204;49.160;8.580;2023-03-01T16:35:13;23.85;;;17.02;;
46489;SDS011;32204;49.160;8.580;2023-03-01T16:37:41;25.52;;;14.93;;
46489;SDS011;32204;49.160;8.580;2023-03-01T16:40:11;24.70;;;16.65;;
46489;SDS011;32204;49.160;8.580;2023-03-01T16:42:41;23.15;;;17.50;;
46489;SDS011;32204;49.160;8.580;2023-03-01T16:45:07;26.00;;;17.13;;
46489;SDS011;32204;49.160;8.580;2023-03-01T16:47:33;22.20;;;16.75;;
46489;SDS011;32204;49.160;8.580;2023-03-01T16:50:01;24.08;;;16.92;;
46489;SDS011;32204;49.160;8.580;2023-03-01T16:52:27;28.52;;;17.95;;
46489;SDS011;32204;49.160;8.580;2023-03-01T16:54:53;21.33;;;17.05;;
46489;SDS011;32204;49.160;8.580;2023-03-01T16:57:19;24.98;;;17.20;;
46489;SDS011;32204;49.160;8.580;2023-03-01T16:59:44;25.02;;;17.15;;
46489;SDS011;32204;49.160;8.580;2023-03-01T17:02:11;25.90;;;16.42;;
46489;SDS011;32204;49.160;8.580;2023-03-01T17:04:41;23.58;;;16.67;;
46489;SDS011;32204;49.160;8.580;2023-03-01T17:09:35;20.73;;;14.38;;
46489;SDS011;32204;49.160;8.580;2023-03-01T17:12:02;29.83;;;16.55;;
46489;SDS011;32204;49.160;8.580;2023-03-01T17:14:29;23.10;;;15.63;;